sensor_id;sensor_type;location;lat;lon;timestamp;P1;durP1;ratioP1;P2;durP2;ratioP2
3207;SDS011;1616;52.394;9.756;2023-04-29T00:01:06;30.77;;;20.63;;
3207;SDS011;1616;52.394;9.756;2023-04-29T00:03:31;26.50;;;19.30;;
3207;SDS011;1616;52.394;9.756;2023-04-29T00:05:57;25.83;;;19.27;;
3207;SDS011;1616;52.394;9.756;2023-04-29T00:08:23;34.43;;;24.23;;
3207;SDS011;1616;52.394;9.756;2023-04-29T00:10:49;33.67;;;22.40;;
3207;SDS011;1616;52.394;9.756;2023-04-29T00:13:15;31.10;;;21.70;;
3207;SDS011;1616;52.394;9.756;2023-04-29T00:15:41;33.30;;;21.73;;
3207;SDS011;1616;52.394;9.756;2023-04-29T00:18:07;37.20;;;24.30;;
3207;SDS011;1616;52.394;9.756;2023-04-29T00:20:33;40.10;;;24.77;;
3207;SDS011;1616;52.394;9.756;2023-04-29T00:22:59;42.63;;;24.93;;
3207;SDS011;1616;52.394;9.756;2023-04-29T00:25:25;37.87;;;24.70;;
3207;SDS011;1616;52.394;9.756;2023-04-29T00:27:51;46.17;;;26.07;;
3207;SDS011;1616;52.394;9.756;2023-04-29T00:30:16;50.93;;;28.87;;
3207;SDS011;1616;52.394;9.756;2023-04-29T00:32:43;45.10;;;25.97;;
3207;SDS011;1616;52.394;9.756;2023-04-29T00:35:09;55.63;;;29.73;;
3207;SDS011;1616;52.394;9.756;2023-04-29T00:37:35;50.80;;;27.50;;
3207;SDS011;1616;52.394;9.756;2023-04-29T00:40:01;53.03;;;27.60;;
3207;SDS011;1616;52.394;9.756;2023-04-29T00:42:28;52.17;;;28.87;;
3207;SDS011;1616;52.394;9.756;2023-04-29T00:44:54;56.70;;;29.80;;
3207;SDS011;1616;52.394;9.756;2023-04-29T00:47:20;45.47;;;24.97;;
3207;SDS011;1616;52.394;9.756;2023-04-29T00:49:45;57.27;;;31.87;;
3207;SDS011;1616;52.394;9.756;2023-04-29T00:52:11;55.27;;;31.27;;
3207;SDS011;1616;52.394;9.756;2023-04-29T00:54:38;44.20;;;27.70;;
3207;SDS011;1616;52.394;9.756;2023-04-29T00:57:05;51.63;;;28.87;;
3207;SDS011;1616;52.394;9.756;2023-04-29T00:59:32;52.40;;;29.43;;
3207;SDS011;1616;52.394;9.756;2023-04-29T01:01:59;52.53;;;27.90;;
3207;SDS011;1616;52.394;9.756;2023-04-29T01:04:31;47.50;;;28.17;;
3207;SDS011;1616;52.394;9.756;2023-04-29T01:07:00;38.13;;;21.90;;
3207;SDS011;1616;52.394;9.756;2023-04-29T01:09:43;44.93;;;24.30;;
3207;SDS011;1616;52.394;9.756;2023-04-29T01:15:04;44.10;;;24.97;;
3207;SDS011;1616;52.394;9.756;2023-04-29T01:20:36;50.77;;;25.27;;
3207;SDS011;1616;52.394;9.756;2023-04-29T01:23:03;39.37;;;21.87;;
3207;SDS011;1616;52.394;9.756;2023-04-29T01:25:28;41.43;;;24.23;;
3207;SDS011;1616;52.394;9.756;2023-04-29T01:42:03;48.37;;;26.20;;
3207;SDS011;1616;52.394;9.756;2023-04-29T01:44:35;49.30;;;28.17;;
3207;SDS011;1616;52.394;9.756;2023-04-29T01:47:04;51.47;;;24.83;;
3207;SDS011;1616;52.394;9.756;2023-04-29T01:49:34;44.57;;;25.07;;
3207;SDS011;1616;52.394;9.756;2023-04-29T01:52:00;53.17;;;26.90;;
3207;SDS011;1616;52.394;9.756;2023-04-29T01:54:26;49.23;;;25.90;;
3207;SDS011;1616;52.394;9.756;2023-04-29T01:56:51;42.50;;;24.30;;
3207;SDS011;1616;52.394;9.756;2023-04-29T01:59:18;41.97;;;23.97;;
3207;SDS011;1616;52.394;9.756;2023-04-29T02:01:44;34.00;;;22.10;;
3207;SDS011;1616;52.394;9.756;2023-04-29T02:04:09;32.50;;;20.07;;
3207;SDS011;1616;52.394;9.756;2023-04-29T02:06:35;37.00;;;21.90;;
3207;SDS011;1616;52.394;9.756;2023-04-29T02:09:00;39.77;;;23.77;;
3207;SDS011;1616;52.394;9.756;2023-04-29T02:11:26;42.47;;;23.60;;
3207;SDS011;1616;52.394;9.756;2023-04-29T02:13:51;48.27;;;25.10;;
3207;SDS011;1616;52.394;9.756;2023-04-29T02:16:18;40.33;;;22.07;;
3207;SDS011;1616;52.394;9.756;2023-04-29T02:18:44;41.80;;;24.57;;
3207;SDS011;1616;52.394;9.756;2023-04-29T02:21:10;31.40;;;18.70;;
3207;SDS011;1616;52.394;9.756;2023-04-29T02:23:36;28.97;;;18.20;;
3207;SDS011;1616;52.394;9.756;2023-04-29T02:26:02;35.23;;;22.83;;
3207;SDS011;1616;52.394;9.756;2023-04-29T02:28:32;50.27;;;28.87;;
3207;SDS011;1616;52.394;9.756;2023-04-29T02:30:58;55.07;;;31.20;;
3207;SDS011;1616;52.394;9.756;2023-04-29T02:33:24;44.70;;;27.30;;
3207;SDS011;1616;52.394;9.756;2023-04-29T02:35:50;43.23;;;27.40;;
3207;SDS011;1616;52.394;9.756;2023-04-29T02:38:16;53.30;;;27.50;;
3207;SDS011;1616;52.394;9.756;2023-04-29T02:40:45;45.80;;;27.80;;
3207;SDS011;1616;52.394;9.756;2023-04-29T02:43:11;48.60;;;29.20;;
3207;SDS011;1616;52.394;9.756;2023-04-29T02:45:37;52.47;;;29.30;;
3207;SDS011;1616;52.394;9.756;2023-04-29T02:48:03;46.73;;;27.93;;
3207;SDS011;1616;52.394;9.756;2023-04-29T02:50:32;43.10;;;27.00;;
3207;SDS011;1616;52.394;9.756;2023-04-29T02:52:58;40.93;;;26.03;;
3207;SDS011;1616;52.394;9.756;2023-04-29T02:55:24;43.70;;;27.27;;
3207;SDS011;1616;52.394;9.756;2023-04-29T02:57:50;42.63;;;27.37;;
3207;SDS011;1616;52.394;9.756;2023-04-29T03:00:17;39.73;;;24.60;;
3207;SDS011;1616;52.394;9.756;2023-04-29T03:02:42;39.03;;;25.37;;
3207;SDS011;1616;52.394;9.756;2023-04-29T03:05:08;41.43;;;26.40;;
3207;SDS011;1616;52.394;9.756;2023-04-29T03:07:34;36.67;;;24.50;;
3207;SDS011;1616;52.394;9.756;2023-04-29T03:10:00;36.77;;;25.83;;
3207;SDS011;1616;52.394;9.756;2023-04-29T03:12:25;31.33;;;23.10;;
3207;SDS011;1616;52.394;9.756;2023-04-29T03:14:51;36.30;;;25.07;;
3207;SDS011;1616;52.394;9.756;2023-04-29T03:17:17;34.33;;;26.03;;
3207;SDS011;1616;52.394;9.756;2023-04-29T03:19:43;24.07;;;19.93;;
3207;SDS011;1616;52.394;9.756;2023-04-29T03:22:08;33.53;;;25.80;;
3207;SDS011;1616;52.394;9.756;2023-04-29T03:24:37;35.17;;;25.70;;
3207;SDS011;1616;52.394;9.756;2023-04-29T03:27:03;34.90;;;25.70;;
3207;SDS011;1616;52.394;9.756;2023-04-29T03:29:29;29.73;;;24.30;;
3207;SDS011;1616;52.394;9.756;2023-04-29T03:31:56;30.70;;;24.60;;
3207;SDS011;1616;52.394;9.756;2023-04-29T03:34:22;36.57;;;26.00;;
3207;SDS011;1616;52.394;9.756;2023-04-29T03:36:48;30.27;;;25.77;;
3207;SDS011;1616;52.394;9.756;2023-04-29T03:39:15;36.80;;;27.60;;
3207;SDS011;1616;52.394;9.756;2023-04-29T03:41:42;39.00;;;30.00;;
3207;SDS011;1616;52.394;9.756;2023-04-29T03:44:08;34.50;;;26.80;;
3207;SDS011;1616;52.394;9.756;2023-04-29T03:46:33;42.43;;;29.50;;
3207;SDS011;1616;52.394;9.756;2023-04-29T03:48:59;33.77;;;26.80;;
3207;SDS011;1616;52.394;9.756;2023-04-29T03:51:25;35.63;;;26.37;;
3207;SDS011;1616;52.394;9.756;2023-04-29T03:53:52;42.63;;;31.80;;
3207;SDS011;1616;52.394;9.756;2023-04-29T03:56:19;47.87;;;31.50;;
3207;SDS011;1616;52.394;9.756;2023-04-29T03:58:44;52.77;;;35.70;;
3207;SDS011;1616;52.394;9.756;2023-04-29T04:01:10;35.07;;;27.27;;
3207;SDS011;1616;52.394;9.756;2023-04-29T04:03:37;52.43;;;34.93;;
3207;SDS011;1616;52.394;9.756;2023-04-29T04:06:02;51.77;;;33.50;;
3207;SDS011;1616;52.394;9.756;2023-04-29T04:08:28;52.63;;;34.93;;
3207;SDS011;1616;52.394;9.756;2023-04-29T04:10:54;63.30;;;38.13;;
3207;SDS011;1616;52.394;9.756;2023-04-29T04:13:26;58.20;;;35.33;;
3207;SDS011;1616;52.394;9.756;2023-04-29T04:15:55;60.23;;;37.07;;
3207;SDS011;1616;52.394;9.756;2023-04-29T04:18:21;55.40;;;34.97;;
3207;SDS011;1616;52.394;9.756;2023-04-29T04:20:46;68.77;;;39.13;;
3207;SDS011;1616;52.394;9.756;2023-04-29T04:23:12;77.90;;;43.53;;
3207;SDS011;1616;52.394;9.756;2023-04-29T04:25:43;66.33;;;38.00;;
3207;SDS011;1616;52.394;9.756;2023-04-29T04:28:12;85.43;;;43.50;;
3207;SDS011;1616;52.394;9.756;2023-04-29T04:30:38;63.33;;;37.13;;
3207;SDS011;1616;52.394;9.756;2023-04-29T04:33:04;83.00;;;42.27;;
3207;SDS011;1616;52.394;9.756;2023-04-29T04:35:30;79.20;;;43.00;;
3207;SDS011;1616;52.394;9.756;2023-04-29T04:37:56;87.30;;;44.27;;
3207;SDS011;1616;52.394;9.756;2023-04-29T04:40:22;84.40;;;43.93;;
3207;SDS011;1616;52.394;9.756;2023-04-29T04:42:48;85.60;;;48.07;;
3207;SDS011;1616;52.394;9.756;2023-04-29T04:45:14;74.30;;;40.10;;
3207;SDS011;1616;52.394;9.756;2023-04-29T04:47:40;70.60;;;38.93;;
3207;SDS011;1616;52.394;9.756;2023-04-29T04:50:06;90.03;;;47.20;;
3207;SDS011;1616;52.394;9.756;2023-04-29T04:52:33;80.00;;;43.37;;
3207;SDS011;1616;52.394;9.756;2023-04-29T04:54:58;84.43;;;46.43;;
3207;SDS011;1616;52.394;9.756;2023-04-29T04:57:24;94.73;;;47.23;;
3207;SDS011;1616;52.394;9.756;2023-04-29T04:59:50;83.57;;;44.77;;
3207;SDS011;1616;52.394;9.756;2023-04-29T05:02:16;86.27;;;47.03;;
3207;SDS011;1616;52.394;9.756;2023-04-29T05:04:42;71.50;;;41.87;;
3207;SDS011;1616;52.394;9.756;2023-04-29T05:07:07;84.17;;;43.50;;
3207;SDS011;1616;52.394;9.756;2023-04-29T05:09:33;69.73;;;41.30;;
3207;SDS011;1616;52.394;9.756;2023-04-29T05:11:59;69.17;;;41.10;;
3207;SDS011;1616;52.394;9.756;2023-04-29T05:14:25;57.27;;;37.47;;
3207;SDS011;1616;52.394;9.756;2023-04-29T05:16:51;62.03;;;40.13;;
3207;SDS011;1616;52.394;9.756;2023-04-29T05:19:17;55.93;;;35.87;;
3207;SDS011;1616;52.394;9.756;2023-04-29T05:21:43;44.43;;;31.30;;
3207;SDS011;1616;52.394;9.756;2023-04-29T05:24:09;49.27;;;32.20;;
3207;SDS011;1616;52.394;9.756;2023-04-29T05:26:35;48.70;;;31.77;;
3207;SDS011;1616;52.394;9.756;2023-04-29T05:29:01;54.67;;;34.03;;
3207;SDS011;1616;52.394;9.756;2023-04-29T05:31:27;51.13;;;33.10;;
3207;SDS011;1616;52.394;9.756;2023-04-29T05:33:52;45.00;;;30.23;;
3207;SDS011;1616;52.394;9.756;2023-04-29T05:36:18;53.73;;;36.00;;
3207;SDS011;1616;52.394;9.756;2023-04-29T05:38:45;48.53;;;32.10;;
3207;SDS011;1616;52.394;9.756;2023-04-29T05:41:11;41.87;;;30.20;;
3207;SDS011;1616;52.394;9.756;2023-04-29T05:43:38;48.90;;;30.50;;
3207;SDS011;1616;52.394;9.756;2023-04-29T05:46:04;46.10;;;29.90;;
3207;SDS011;1616;52.394;9.756;2023-04-29T05:48:30;48.97;;;33.20;;
3207;SDS011;1616;52.394;9.756;2023-04-29T05:50:55;49.03;;;32.77;;
3207;SDS011;1616;52.394;9.756;2023-04-29T05:53:21;44.53;;;30.40;;
3207;SDS011;1616;52.394;9.756;2023-04-29T05:55:47;48.40;;;30.40;;
3207;SDS011;1616;52.394;9.756;2023-04-29T05:58:15;48.00;;;30.90;;
3207;SDS011;1616;52.394;9.756;2023-04-29T06:00:41;51.97;;;31.00;;
3207;SDS011;1616;52.394;9.756;2023-04-29T06:03:08;46.50;;;28.17;;
3207;SDS011;1616;52.394;9.756;2023-04-29T06:05:35;51.60;;;29.40;;
3207;SDS011;1616;52.394;9.756;2023-04-29T06:08:01;46.50;;;30.20;;
3207;SDS011;1616;52.394;9.756;2023-04-29T06:10:28;43.80;;;30.00;;
3207;SDS011;1616;52.394;9.756;2023-04-29T06:12:54;42.10;;;29.67;;
3207;SDS011;1616;52.394;9.756;2023-04-29T06:15:20;38.67;;;25.27;;
3207;SDS011;1616;52.394;9.756;2023-04-29T06:17:46;36.70;;;27.23;;
3207;SDS011;1616;52.394;9.756;2023-04-29T06:20:12;38.67;;;27.23;;
3207;SDS011;1616;52.394;9.756;2023-04-29T06:22:38;37.27;;;26.23;;
3207;SDS011;1616;52.394;9.756;2023-04-29T06:25:04;34.60;;;24.20;;
3207;SDS011;1616;52.394;9.756;2023-04-29T06:27:30;36.33;;;25.20;;
3207;SDS011;1616;52.394;9.756;2023-04-29T06:29:56;29.33;;;23.77;;
3207;SDS011;1616;52.394;9.756;2023-04-29T06:32:23;37.97;;;26.33;;
3207;SDS011;1616;52.394;9.756;2023-04-29T06:34:48;35.77;;;23.73;;
3207;SDS011;1616;52.394;9.756;2023-04-29T06:37:14;36.73;;;25.73;;
3207;SDS011;1616;52.394;9.756;2023-04-29T06:39:40;27.57;;;21.47;;
3207;SDS011;1616;52.394;9.756;2023-04-29T06:42:06;28.23;;;22.27;;
3207;SDS011;1616;52.394;9.756;2023-04-29T06:44:31;30.00;;;23.27;;
3207;SDS011;1616;52.394;9.756;2023-04-29T06:46:57;25.50;;;20.50;;
3207;SDS011;1616;52.394;9.756;2023-04-29T06:49:23;26.50;;;22.07;;
3207;SDS011;1616;52.394;9.756;2023-04-29T06:51:48;33.77;;;24.60;;
3207;SDS011;1616;52.394;9.756;2023-04-29T06:54:14;32.70;;;21.77;;
3207;SDS011;1616;52.394;9.756;2023-04-29T06:56:40;25.40;;;21.00;;
3207;SDS011;1616;52.394;9.756;2023-04-29T06:59:05;26.43;;;21.57;;
3207;SDS011;1616;52.394;9.756;2023-04-29T07:01:31;25.43;;;21.30;;
3207;SDS011;1616;52.394;9.756;2023-04-29T07:03:57;29.27;;;21.00;;
3207;SDS011;1616;52.394;9.756;2023-04-29T07:06:22;31.47;;;21.57;;
3207;SDS011;1616;52.394;9.756;2023-04-29T07:08:48;20.30;;;18.10;;
3207;SDS011;1616;52.394;9.756;2023-04-29T07:11:14;22.13;;;19.57;;
3207;SDS011;1616;52.394;9.756;2023-04-29T07:13:40;22.67;;;20.27;;
3207;SDS011;1616;52.394;9.756;2023-04-29T07:16:13;18.47;;;16.53;;
3207;SDS011;1616;52.394;9.756;2023-04-29T07:18:40;18.40;;;16.53;;
3207;SDS011;1616;52.394;9.756;2023-04-29T07:21:06;21.80;;;19.00;;
3207;SDS011;1616;52.394;9.756;2023-04-29T07:23:32;19.40;;;17.00;;
3207;SDS011;1616;52.394;9.756;2023-04-29T07:25:58;19.23;;;17.20;;
3207;SDS011;1616;52.394;9.756;2023-04-29T07:28:23;18.33;;;16.40;;
3207;SDS011;1616;52.394;9.756;2023-04-29T07:30:49;17.20;;;15.63;;
3207;SDS011;1616;52.394;9.756;2023-04-29T07:33:14;17.17;;;15.40;;
3207;SDS011;1616;52.394;9.756;2023-04-29T07:35:41;16.23;;;14.90;;
3207;SDS011;1616;52.394;9.756;2023-04-29T07:38:08;15.47;;;14.07;;
3207;SDS011;1616;52.394;9.756;2023-04-29T07:40:34;17.73;;;15.83;;
3207;SDS011;1616;52.394;9.756;2023-04-29T07:43:00;16.13;;;14.53;;
3207;SDS011;1616;52.394;9.756;2023-04-29T07:45:28;17.60;;;12.70;;
3207;SDS011;1616;52.394;9.756;2023-04-29T07:47:54;14.33;;;12.97;;
3207;SDS011;1616;52.394;9.756;2023-04-29T07:50:20;16.13;;;14.50;;
3207;SDS011;1616;52.394;9.756;2023-04-29T07:52:46;13.73;;;12.50;;
3207;SDS011;1616;52.394;9.756;2023-04-29T07:55:12;13.83;;;12.10;;
3207;SDS011;1616;52.394;9.756;2023-04-29T07:57:38;14.20;;;13.00;;
3207;SDS011;1616;52.394;9.756;2023-04-29T08:00:04;12.30;;;11.30;;
3207;SDS011;1616;52.394;9.756;2023-04-29T08:02:31;12.40;;;11.27;;
3207;SDS011;1616;52.394;9.756;2023-04-29T08:04:57;12.57;;;11.47;;
3207;SDS011;1616;52.394;9.756;2023-04-29T08:07:23;13.43;;;12.07;;
3207;SDS011;1616;52.394;9.756;2023-04-29T08:09:48;10.33;;;9.73;;
3207;SDS011;1616;52.394;9.756;2023-04-29T08:12:14;11.00;;;10.20;;
3207;SDS011;1616;52.394;9.756;2023-04-29T08:14:39;10.00;;;9.30;;
3207;SDS011;1616;52.394;9.756;2023-04-29T08:17:05;10.73;;;9.93;;
3207;SDS011;1616;52.394;9.756;2023-04-29T08:19:32;10.07;;;9.47;;
3207;SDS011;1616;52.394;9.756;2023-04-29T08:21:57;11.10;;;10.20;;
3207;SDS011;1616;52.394;9.756;2023-04-29T08:24:25;9.50;;;9.03;;
3207;SDS011;1616;52.394;9.756;2023-04-29T08:26:51;10.97;;;10.17;;
3207;SDS011;1616;52.394;9.756;2023-04-29T08:29:17;10.57;;;10.07;;
3207;SDS011;1616;52.394;9.756;2023-04-29T08:31:43;9.70;;;9.10;;
3207;SDS011;1616;52.394;9.756;2023-04-29T08:34:09;9.77;;;9.10;;
3207;SDS011;1616;52.394;9.756;2023-04-29T08:36:34;9.10;;;8.20;;
3207;SDS011;1616;52.394;9.756;2023-04-29T08:39:02;8.33;;;7.73;;
3207;SDS011;1616;52.394;9.756;2023-04-29T08:41:30;10.03;;;8.80;;
3207;SDS011;1616;52.394;9.756;2023-04-29T08:43:58;10.60;;;9.70;;
3207;SDS011;1616;52.394;9.756;2023-04-29T08:46:25;8.10;;;7.53;;
3207;SDS011;1616;52.394;9.756;2023-04-29T08:48:51;7.80;;;7.50;;
3207;SDS011;1616;52.394;9.756;2023-04-29T08:51:17;7.97;;;7.47;;
3207;SDS011;1616;52.394;9.756;2023-04-29T08:53:43;8.17;;;7.57;;
3207;SDS011;1616;52.394;9.756;2023-04-29T08:56:12;8.30;;;7.83;;
3207;SDS011;1616;52.394;9.756;2023-04-29T08:58:51;8.40;;;7.70;;
3207;SDS011;1616;52.394;9.756;2023-04-29T09:01:19;8.37;;;7.87;;
3207;SDS011;1616;52.394;9.756;2023-04-29T09:03:48;10.13;;;8.03;;
3207;SDS011;1616;52.394;9.756;2023-04-29T09:06:18;8.43;;;7.83;;
3207;SDS011;1616;52.394;9.756;2023-04-29T09:08:45;7.33;;;6.83;;
3207;SDS011;1616;52.394;9.756;2023-04-29T09:11:11;8.93;;;8.17;;
3207;SDS011;1616;52.394;9.756;2023-04-29T09:13:38;7.63;;;7.13;;
3207;SDS011;1616;52.394;9.756;2023-04-29T09:16:04;8.67;;;8.03;;
3207;SDS011;1616;52.394;9.756;2023-04-29T09:18:47;7.57;;;7.10;;
3207;SDS011;1616;52.394;9.756;2023-04-29T09:21:19;7.20;;;6.80;;
3207;SDS011;1616;52.394;9.756;2023-04-29T09:23:50;7.60;;;7.27;;
3207;SDS011;1616;52.394;9.756;2023-04-29T09:26:17;8.23;;;7.60;;
3207;SDS011;1616;52.394;9.756;2023-04-29T09:28:43;8.37;;;7.77;;
3207;SDS011;1616;52.394;9.756;2023-04-29T09:31:11;9.03;;;8.23;;
3207;SDS011;1616;52.394;9.756;2023-04-29T09:36:37;7.13;;;6.67;;
3207;SDS011;1616;52.394;9.756;2023-04-29T09:39:13;8.07;;;7.47;;
3207;SDS011;1616;52.394;9.756;2023-04-29T09:41:42;8.93;;;8.40;;
3207;SDS011;1616;52.394;9.756;2023-04-29T09:44:30;10.23;;;8.20;;
3207;SDS011;1616;52.394;9.756;2023-04-29T09:47:04;8.90;;;8.40;;
3207;SDS011;1616;52.394;9.756;2023-04-29T09:49:32;9.87;;;9.30;;
3207;SDS011;1616;52.394;9.756;2023-04-29T09:52:06;8.83;;;8.23;;
3207;SDS011;1616;52.394;9.756;2023-04-29T09:54:34;10.10;;;9.50;;
3207;SDS011;1616;52.394;9.756;2023-04-29T09:57:01;10.47;;;9.77;;
3207;SDS011;1616;52.394;9.756;2023-04-29T09:59:30;9.40;;;8.50;;
3207;SDS011;1616;52.394;9.756;2023-04-29T10:01:57;9.73;;;9.17;;
3207;SDS011;1616;52.394;9.756;2023-04-29T10:04:23;10.90;;;9.23;;
3207;SDS011;1616;52.394;9.756;2023-04-29T10:06:52;11.87;;;10.67;;
3207;SDS011;1616;52.394;9.756;2023-04-29T10:09:19;10.23;;;9.27;;
3207;SDS011;1616;52.394;9.756;2023-04-29T10:11:47;9.00;;;8.40;;
3207;SDS011;1616;52.394;9.756;2023-04-29T10:14:15;9.60;;;8.80;;
3207;SDS011;1616;52.394;9.756;2023-04-29T10:16:49;10.37;;;9.47;;
3207;SDS011;1616;52.394;9.756;2023-04-29T10:19:18;10.20;;;9.20;;
3207;SDS011;1616;52.394;9.756;2023-04-29T10:21:51;10.23;;;9.33;;
3207;SDS011;1616;52.394;9.756;2023-04-29T10:24:19;10.40;;;9.30;;
3207;SDS011;1616;52.394;9.756;2023-04-29T10:26:48;9.37;;;8.77;;
3207;SDS011;1616;52.394;9.756;2023-04-29T10:29:16;9.83;;;9.00;;
3207;SDS011;1616;52.394;9.756;2023-04-29T10:31:43;10.00;;;9.20;;
3207;SDS011;1616;52.394;9.756;2023-04-29T10:34:11;10.60;;;9.83;;
3207;SDS011;1616;52.394;9.756;2023-04-29T10:36:38;9.23;;;8.30;;
3207;SDS011;1616;52.394;9.756;2023-04-29T10:39:05;8.77;;;8.20;;
3207;SDS011;1616;52.394;9.756;2023-04-29T10:41:44;8.60;;;8.10;;
3207;SDS011;1616;52.394;9.756;2023-04-29T10:44:11;7.73;;;7.37;;
3207;SDS011;1616;52.394;9.756;2023-04-29T10:46:37;8.27;;;7.10;;
3207;SDS011;1616;52.394;9.756;2023-04-29T10:49:03;9.40;;;8.53;;
3207;SDS011;1616;52.394;9.756;2023-04-29T10:51:34;7.83;;;7.33;;
3207;SDS011;1616;52.394;9.756;2023-04-29T10:54:08;6.90;;;6.40;;
3207;SDS011;1616;52.394;9.756;2023-04-29T10:56:47;8.50;;;7.90;;
3207;SDS011;1616;52.394;9.756;2023-04-29T10:59:21;9.40;;;8.50;;
3207;SDS011;1616;52.394;9.756;2023-04-29T11:02:08;6.77;;;6.47;;
3207;SDS011;1616;52.394;9.756;2023-04-29T11:04:42;7.73;;;6.67;;
3207;SDS011;1616;52.394;9.756;2023-04-29T11:07:34;7.60;;;7.20;;
3207;SDS011;1616;52.394;9.756;2023-04-29T11:10:03;7.50;;;6.90;;
3207;SDS011;1616;52.394;9.756;2023-04-29T11:12:29;7.90;;;7.20;;
3207;SDS011;1616;52.394;9.756;2023-04-29T11:14:56;7.27;;;6.77;;
3207;SDS011;1616;52.394;9.756;2023-04-29T11:17:37;6.20;;;5.90;;
3207;SDS011;1616;52.394;9.756;2023-04-29T11:20:04;5.67;;;5.27;;
3207;SDS011;1616;52.394;9.756;2023-04-29T11:22:37;5.77;;;5.40;;
3207;SDS011;1616;52.394;9.756;2023-04-29T11:25:04;7.30;;;6.70;;
3207;SDS011;1616;52.394;9.756;2023-04-29T11:30:01;6.53;;;5.77;;
3207;SDS011;1616;52.394;9.756;2023-04-29T11:32:33;7.00;;;6.33;;
3207;SDS011;1616;52.394;9.756;2023-04-29T11:35:07;5.20;;;5.00;;
3207;SDS011;1616;52.394;9.756;2023-04-29T11:37:34;6.30;;;5.13;;
3207;SDS011;1616;52.394;9.756;2023-04-29T11:40:01;5.10;;;4.80;;
3207;SDS011;1616;52.394;9.756;2023-04-29T11:42:27;4.70;;;4.37;;
3207;SDS011;1616;52.394;9.756;2023-04-29T11:44:53;7.00;;;6.30;;
3207;SDS011;1616;52.394;9.756;2023-04-29T11:47:24;5.77;;;5.47;;
3207;SDS011;1616;52.394;9.756;2023-04-29T11:49:52;6.17;;;5.77;;
3207;SDS011;1616;52.394;9.756;2023-04-29T11:52:18;7.37;;;6.20;;
3207;SDS011;1616;52.394;9.756;2023-04-29T11:54:44;6.50;;;6.07;;
3207;SDS011;1616;52.394;9.756;2023-04-29T11:57:11;6.10;;;5.70;;
3207;SDS011;1616;52.394;9.756;2023-04-29T11:59:37;6.60;;;6.20;;
3207;SDS011;1616;52.394;9.756;2023-04-29T12:02:07;6.53;;;6.00;;
3207;SDS011;1616;52.394;9.756;2023-04-29T12:04:43;5.80;;;5.40;;
3207;SDS011;1616;52.394;9.756;2023-04-29T12:07:10;5.77;;;5.37;;
3207;SDS011;1616;52.394;9.756;2023-04-29T12:09:42;7.07;;;5.47;;
3207;SDS011;1616;52.394;9.756;2023-04-29T12:12:09;5.00;;;4.70;;
3207;SDS011;1616;52.394;9.756;2023-04-29T12:14:35;6.07;;;5.60;;
3207;SDS011;1616;52.394;9.756;2023-04-29T12:17:02;5.63;;;5.30;;
3207;SDS011;1616;52.394;9.756;2023-04-29T12:19:28;4.77;;;4.57;;
3207;SDS011;1616;52.394;9.756;2023-04-29T12:21:57;5.50;;;5.20;;
3207;SDS011;1616;52.394;9.756;2023-04-29T12:24:24;5.47;;;5.00;;
3207;SDS011;1616;52.394;9.756;2023-04-29T12:26:49;5.27;;;4.80;;
3207;SDS011;1616;52.394;9.756;2023-04-29T12:29:15;4.67;;;4.33;;
3207;SDS011;1616;52.394;9.756;2023-04-29T12:31:41;4.80;;;4.43;;
3207;SDS011;1616;52.394;9.756;2023-04-29T12:34:07;3.53;;;3.33;;
3207;SDS011;1616;52.394;9.756;2023-04-29T12:36:33;4.40;;;4.17;;
3207;SDS011;1616;52.394;9.756;2023-04-29T12:38:59;4.73;;;3.77;;
3207;SDS011;1616;52.394;9.756;2023-04-29T12:41:38;5.90;;;4.30;;
3207;SDS011;1616;52.394;9.756;2023-04-29T12:44:05;3.67;;;3.37;;
3207;SDS011;1616;52.394;9.756;2023-04-29T12:46:37;4.73;;;4.53;;
3207;SDS011;1616;52.394;9.756;2023-04-29T12:49:04;3.77;;;3.57;;
3207;SDS011;1616;52.394;9.756;2023-04-29T12:51:31;3.40;;;3.10;;
3207;SDS011;1616;52.394;9.756;2023-04-29T12:54:01;4.43;;;4.13;;
3207;SDS011;1616;52.394;9.756;2023-04-29T12:56:28;4.43;;;4.10;;
3207;SDS011;1616;52.394;9.756;2023-04-29T12:58:56;3.30;;;3.10;;
3207;SDS011;1616;52.394;9.756;2023-04-29T13:01:28;3.60;;;3.40;;
3207;SDS011;1616;52.394;9.756;2023-04-29T13:03:53;3.67;;;3.47;;
3207;SDS011;1616;52.394;9.756;2023-04-29T13:06:19;4.87;;;4.17;;
3207;SDS011;1616;52.394;9.756;2023-04-29T13:08:45;4.70;;;4.50;;
3207;SDS011;1616;52.394;9.756;2023-04-29T13:11:10;4.23;;;3.93;;
3207;SDS011;1616;52.394;9.756;2023-04-29T13:13:38;4.13;;;3.83;;
3207;SDS011;1616;52.394;9.756;2023-04-29T13:16:04;3.70;;;3.47;;
3207;SDS011;1616;52.394;9.756;2023-04-29T13:18:30;4.33;;;3.77;;
3207;SDS011;1616;52.394;9.756;2023-04-29T13:20:56;2.90;;;2.77;;
3207;SDS011;1616;52.394;9.756;2023-04-29T13:23:22;4.67;;;4.20;;
3207;SDS011;1616;52.394;9.756;2023-04-29T13:25:48;3.30;;;3.00;;
3207;SDS011;1616;52.394;9.756;2023-04-29T13:28:14;3.40;;;3.20;;
3207;SDS011;1616;52.394;9.756;2023-04-29T13:30:40;4.00;;;3.80;;
3207;SDS011;1616;52.394;9.756;2023-04-29T13:33:06;4.50;;;4.10;;
3207;SDS011;1616;52.394;9.756;2023-04-29T13:35:32;3.90;;;3.70;;
3207;SDS011;1616;52.394;9.756;2023-04-29T13:38:00;3.53;;;3.33;;
3207;SDS011;1616;52.394;9.756;2023-04-29T13:40:26;3.77;;;3.47;;
3207;SDS011;1616;52.394;9.756;2023-04-29T13:42:52;2.97;;;2.73;;
3207;SDS011;1616;52.394;9.756;2023-04-29T13:45:18;3.60;;;2.90;;
3207;SDS011;1616;52.394;9.756;2023-04-29T13:47:43;3.63;;;3.20;;
3207;SDS011;1616;52.394;9.756;2023-04-29T13:50:09;3.37;;;2.90;;
3207;SDS011;1616;52.394;9.756;2023-04-29T13:52:35;3.53;;;2.63;;
3207;SDS011;1616;52.394;9.756;2023-04-29T13:55:01;3.03;;;2.83;;
3207;SDS011;1616;52.394;9.756;2023-04-29T13:57:26;4.47;;;3.03;;
3207;SDS011;1616;52.394;9.756;2023-04-29T13:59:52;3.70;;;3.50;;
3207;SDS011;1616;52.394;9.756;2023-04-29T14:02:19;5.80;;;3.93;;
3207;SDS011;1616;52.394;9.756;2023-04-29T14:04:45;4.33;;;4.13;;
3207;SDS011;1616;52.394;9.756;2023-04-29T14:07:12;4.30;;;3.97;;
3207;SDS011;1616;52.394;9.756;2023-04-29T14:09:38;3.53;;;3.33;;
3207;SDS011;1616;52.394;9.756;2023-04-29T14:12:04;4.27;;;3.97;;
3207;SDS011;1616;52.394;9.756;2023-04-29T14:14:30;3.23;;;3.03;;
3207;SDS011;1616;52.394;9.756;2023-04-29T14:16:56;3.57;;;3.27;;
3207;SDS011;1616;52.394;9.756;2023-04-29T14:19:22;3.77;;;2.90;;
3207;SDS011;1616;52.394;9.756;2023-04-29T14:21:48;3.10;;;2.60;;
3207;SDS011;1616;52.394;9.756;2023-04-29T14:24:13;4.13;;;3.93;;
3207;SDS011;1616;52.394;9.756;2023-04-29T14:26:39;3.63;;;3.43;;
3207;SDS011;1616;52.394;9.756;2023-04-29T14:29:05;3.50;;;3.30;;
3207;SDS011;1616;52.394;9.756;2023-04-29T14:31:32;3.40;;;3.20;;
3207;SDS011;1616;52.394;9.756;2023-04-29T14:34:02;5.40;;;3.77;;
3207;SDS011;1616;52.394;9.756;2023-04-29T14:36:27;4.00;;;3.70;;
3207;SDS011;1616;52.394;9.756;2023-04-29T14:38:53;4.50;;;4.20;;
3207;SDS011;1616;52.394;9.756;2023-04-29T14:41:19;3.80;;;3.50;;
3207;SDS011;1616;52.394;9.756;2023-04-29T14:43:47;4.50;;;4.23;;
3207;SDS011;1616;52.394;9.756;2023-04-29T14:46:13;4.27;;;3.73;;
3207;SDS011;1616;52.394;9.756;2023-04-29T14:48:39;4.30;;;3.57;;
3207;SDS011;1616;52.394;9.756;2023-04-29T14:51:05;2.97;;;2.20;;
3207;SDS011;1616;52.394;9.756;2023-04-29T14:53:31;4.50;;;2.53;;
3207;SDS011;1616;52.394;9.756;2023-04-29T14:55:57;2.43;;;2.20;;
3207;SDS011;1616;52.394;9.756;2023-04-29T14:58:22;2.37;;;2.17;;
3207;SDS011;1616;52.394;9.756;2023-04-29T15:00:48;2.87;;;2.67;;
3207;SDS011;1616;52.394;9.756;2023-04-29T15:03:16;2.60;;;2.40;;
3207;SDS011;1616;52.394;9.756;2023-04-29T15:05:42;3.80;;;2.80;;
3207;SDS011;1616;52.394;9.756;2023-04-29T15:08:08;3.43;;;3.23;;
3207;SDS011;1616;52.394;9.756;2023-04-29T15:10:35;2.70;;;2.50;;
3207;SDS011;1616;52.394;9.756;2023-04-29T15:13:01;11.27;;;2.90;;
3207;SDS011;1616;52.394;9.756;2023-04-29T15:15:27;3.13;;;2.93;;
3207;SDS011;1616;52.394;9.756;2023-04-29T15:17:53;3.17;;;2.97;;
3207;SDS011;1616;52.394;9.756;2023-04-29T15:20:19;2.90;;;2.60;;
3207;SDS011;1616;52.394;9.756;2023-04-29T15:22:45;3.30;;;3.00;;
3207;SDS011;1616;52.394;9.756;2023-04-29T15:25:11;2.87;;;2.67;;